sensor_id;sensor_type;location;lat;lon;timestamp;temperature;humidity
32147;DHT22;32190;49.112;8.598;2023-04-03T00:01:17;11.20;49.10
32147;DHT22;32190;49.112;8.598;2023-04-03T00:07:08;11.30;49.40
32147;DHT22;32190;49.112;8.598;2023-04-03T00:12:59;11.30;49.60
32147;DHT22;32190;49.112;8.598;2023-04-03T00:18:49;11.30;49.30
32147;DHT22;32190;49.112;8.598;2023-04-03T00:24:40;11.30;49.30
32147;DHT22;32190;49.112;8.598;2023-04-03T00:30:32;11.30;49.20
32147;DHT22;32190;49.112;8.598;2023-04-03T00:36:22;11.20;48.40
32147;DHT22;32190;49.112;8.598;2023-04-03T00:42:13;11.10;48.80
32147;DHT22;32190;49.112;8.598;2023-04-03T00:48:05;11.10;48.50
32147;DHT22;32190;49.112;8.598;2023-04-03T00:54:00;11.00;48.20
32147;DHT22;32190;49.112;8.598;2023-04-03T00:59:55;10.80;48.30
32147;DHT22;32190;49.112;8.598;2023-04-03T01:05:46;10.80;48.60
32147;DHT22;32190;49.112;8.598;2023-04-03T01:11:37;10.70;48.30
32147;DHT22;32190;49.112;8.598;2023-04-03T01:17:39;10.60;48.30
32147;DHT22;32190;49.112;8.598;2023-04-03T01:23:52;10.50;47.70
32147;DHT22;32190;49.112;8.598;2023-04-03T01:29:47;10.50;48.90
32147;DHT22;32190;49.112;8.598;2023-04-03T01:35:38;10.50;48.80
32147;DHT22;32190;49.112;8.598;2023-04-03T01:41:28;10.50;48.80
32147;DHT22;32190;49.112;8.598;2023-04-03T01:47:19;10.50;49.00
32147;DHT22;32190;49.112;8.598;2023-04-03T01:53:10;10.50;49.10
32147;DHT22;32190;49.112;8.598;2023-04-03T01:59:00;10.50;48.80
32147;DHT22;32190;49.112;8.598;2023-04-03T02:05:18;10.50;48.80
32147;DHT22;32190;49.112;8.598;2023-04-03T02:11:12;10.50;47.70
32147;DHT22;32190;49.112;8.598;2023-04-03T02:23:42;10.30;48.30
32147;DHT22;32190;49.112;8.598;2023-04-03T02:29:33;10.40;49.00
32147;DHT22;32190;49.112;8.598;2023-04-03T02:35:24;10.50;49.40
32147;DHT22;32190;49.112;8.598;2023-04-03T02:41:15;10.50;49.10
32147;DHT22;32190;49.112;8.598;2023-04-03T02:47:08;10.50;49.40
32147;DHT22;32190;49.112;8.598;2023-04-03T02:52:59;10.50;49.10
32147;DHT22;32190;49.112;8.598;2023-04-03T02:58:49;10.50;49.30
32147;DHT22;32190;49.112;8.598;2023-04-03T03:04:40;10.50;48.90
32147;DHT22;32190;49.112;8.598;2023-04-03T03:10:30;10.40;49.40
32147;DHT22;32190;49.112;8.598;2023-04-03T03:16:21;10.30;49.00
32147;DHT22;32190;49.112;8.598;2023-04-03T03:22:12;10.20;49.30
32147;DHT22;32190;49.112;8.598;2023-04-03T03:28:02;10.20;49.20
32147;DHT22;32190;49.112;8.598;2023-04-03T03:33:53;10.10;49.20
32147;DHT22;32190;49.112;8.598;2023-04-03T03:39:43;10.10;49.50
32147;DHT22;32190;49.112;8.598;2023-04-03T03:45:34;10.10;49.30
32147;DHT22;32190;49.112;8.598;2023-04-03T03:51:25;10.10;49.50
32147;DHT22;32190;49.112;8.598;2023-04-03T03:57:15;10.10;49.30
32147;DHT22;32190;49.112;8.598;2023-04-03T04:03:06;10.00;49.30
32147;DHT22;32190;49.112;8.598;2023-04-03T04:08:57;10.00;49.80
32147;DHT22;32190;49.112;8.598;2023-04-03T04:14:47;10.00;49.70
32147;DHT22;32190;49.112;8.598;2023-04-03T04:20:38;10.10;49.50
32147;DHT22;32190;49.112;8.598;2023-04-03T04:26:28;10.10;49.60
32147;DHT22;32190;49.112;8.598;2023-04-03T04:32:19;10.10;49.60
32147;DHT22;32190;49.112;8.598;2023-04-03T04:38:10;10.10;49.70
32147;DHT22;32190;49.112;8.598;2023-04-03T04:44:00;10.10;49.50
32147;DHT22;32190;49.112;8.598;2023-04-03T04:49:58;10.00;49.60
32147;DHT22;32190;49.112;8.598;2023-04-03T04:55:49;10.00;49.80
32147;DHT22;32190;49.112;8.598;2023-04-03T05:01:39;10.00;49.60
32147;DHT22;32190;49.112;8.598;2023-04-03T05:07:30;9.90;49.60
32147;DHT22;32190;49.112;8.598;2023-04-03T05:13:21;9.80;49.60
32147;DHT22;32190;49.112;8.598;2023-04-03T05:19:11;9.70;49.70
32147;DHT22;32190;49.112;8.598;2023-04-03T05:25:02;9.70;50.00
32147;DHT22;32190;49.112;8.598;2023-04-03T05:30:54;9.70;50.10
32147;DHT22;32190;49.112;8.598;2023-04-03T05:36:45;9.70;50.10
32147;DHT22;32190;49.112;8.598;2023-04-03T05:42:36;9.70;50.10
32147;DHT22;32190;49.112;8.598;2023-04-03T05:48:26;9.70;50.00
32147;DHT22;32190;49.112;8.598;2023-04-03T05:54:25;9.70;49.70
32147;DHT22;32190;49.112;8.598;2023-04-03T06:00:16;9.70;49.00
32147;DHT22;32190;49.112;8.598;2023-04-03T06:06:07;9.60;49.60
32147;DHT22;32190;49.112;8.598;2023-04-03T06:11:58;9.60;49.80
32147;DHT22;32190;49.112;8.598;2023-04-03T06:17:49;9.60;49.70
32147;DHT22;32190;49.112;8.598;2023-04-03T06:23:40;9.50;49.90
32147;DHT22;32190;49.112;8.598;2023-04-03T06:29:30;9.60;49.90
32147;DHT22;32190;49.112;8.598;2023-04-03T06:35:21;9.60;49.60
32147;DHT22;32190;49.112;8.598;2023-04-03T06:41:14;9.50;49.60
32147;DHT22;32190;49.112;8.598;2023-04-03T06:47:05;9.50;49.60
32147;DHT22;32190;49.112;8.598;2023-04-03T06:52:55;9.50;49.90
32147;DHT22;32190;49.112;8.598;2023-04-03T06:58:46;9.50;49.70
32147;DHT22;32190;49.112;8.598;2023-04-03T07:04:54;9.50;49.10
32147;DHT22;32190;49.112;8.598;2023-04-03T07:10:48;9.40;48.80
32147;DHT22;32190;49.112;8.598;2023-04-03T07:16:56;9.30;49.20
32147;DHT22;32190;49.112;8.598;2023-04-03T07:23:11;9.20;49.50
32147;DHT22;32190;49.112;8.598;2023-04-03T07:29:33;9.10;49.40
32147;DHT22;32190;49.112;8.598;2023-04-03T07:35:56;9.00;49.90
32147;DHT22;32190;49.112;8.598;2023-04-03T07:41:47;9.00;50.00
32147;DHT22;32190;49.112;8.598;2023-04-03T07:47:38;9.00;50.30
32147;DHT22;32190;49.112;8.598;2023-04-03T07:53:28;9.10;50.50
32147;DHT22;32190;49.112;8.598;2023-04-03T07:59:19;9.20;50.40
32147;DHT22;32190;49.112;8.598;2023-04-03T08:05:19;9.20;50.40
32147;DHT22;32190;49.112;8.598;2023-04-03T08:11:11;9.30;50.50
32147;DHT22;32190;49.112;8.598;2023-04-03T08:17:02;9.50;50.50
32147;DHT22;32190;49.112;8.598;2023-04-03T08:22:54;9.60;50.40
32147;DHT22;32190;49.112;8.598;2023-04-03T08:28:45;9.70;50.10
32147;DHT22;32190;49.112;8.598;2023-04-03T08:34:35;9.80;50.10
32147;DHT22;32190;49.112;8.598;2023-04-03T08:40:29;10.00;50.20
32147;DHT22;32190;49.112;8.598;2023-04-03T08:46:22;10.10;49.90
32147;DHT22;32190;49.112;8.598;2023-04-03T08:52:28;10.20;49.10
32147;DHT22;32190;49.112;8.598;2023-04-03T08:58:30;10.30;48.80
32147;DHT22;32190;49.112;8.598;2023-04-03T09:04:22;10.30;48.80
32147;DHT22;32190;49.112;8.598;2023-04-03T09:10:25;10.40;48.80
32147;DHT22;32190;49.112;8.598;2023-04-03T09:16:25;10.50;48.80
32147;DHT22;32190;49.112;8.598;2023-04-03T09:22:24;10.70;48.40
32147;DHT22;32190;49.112;8.598;2023-04-03T09:28:15;10.90;47.50
32147;DHT22;32190;49.112;8.598;2023-04-03T09:34:14;11.10;47.90
32147;DHT22;32190;49.112;8.598;2023-04-03T09:41:02;11.20;47.20
32147;DHT22;32190;49.112;8.598;2023-04-03T09:46:25;11.40;47.10
32147;DHT22;32190;49.112;8.598;2023-04-03T09:52:26;11.50;46.90
32147;DHT22;32190;49.112;8.598;2023-04-03T09:58:29;11.60;46.20
32147;DHT22;32190;49.112;8.598;2023-04-03T10:04:19;11.70;46.60
32147;DHT22;32190;49.112;8.598;2023-04-03T10:10:16;11.80;45.90
32147;DHT22;32190;49.112;8.598;2023-04-03T10:16:14;11.80;45.20
32147;DHT22;32190;49.112;8.598;2023-04-03T11:15:53;11.80;43.80
32147;DHT22;32190;49.112;8.598;2023-04-03T11:28:17;11.80;43.30
32147;DHT22;32190;49.112;8.598;2023-04-03T11:34:46;11.80;43.20
32147;DHT22;32190;49.112;8.598;2023-04-03T11:40:38;11.90;42.90
32147;DHT22;32190;49.112;8.598;2023-04-03T11:46:58;12.00;43.10
32147;DHT22;32190;49.112;8.598;2023-04-03T12:05:27;12.20;42.60
32147;DHT22;32190;49.112;8.598;2023-04-03T12:11:32;12.20;42.40
32147;DHT22;32190;49.112;8.598;2023-04-03T12:17:33;12.20;42.10
32147;DHT22;32190;49.112;8.598;2023-04-03T12:56:23;12.30;42.10
32147;DHT22;32190;49.112;8.598;2023-04-03T13:02:29;12.20;41.30
32147;DHT22;32190;49.112;8.598;2023-04-03T13:08:20;12.20;41.10
32147;DHT22;32190;49.112;8.598;2023-04-03T13:14:23;12.30;42.00
32147;DHT22;32190;49.112;8.598;2023-04-03T13:20:26;12.30;40.30
32147;DHT22;32190;49.112;8.598;2023-04-03T13:32:46;12.30;41.20
32147;DHT22;32190;49.112;8.598;2023-04-03T13:38:37;12.40;40.80
32147;DHT22;32190;49.112;8.598;2023-04-03T13:50:24;12.30;41.20
32147;DHT22;32190;49.112;8.598;2023-04-03T13:56:25;12.30;41.20
32147;DHT22;32190;49.112;8.598;2023-04-03T14:02:21;12.30;41.00
32147;DHT22;32190;49.112;8.598;2023-04-03T14:08:12;12.30;39.90
32147;DHT22;32190;49.112;8.598;2023-04-03T14:14:12;12.20;41.00
32147;DHT22;32190;49.112;8.598;2023-04-03T14:20:03;12.20;40.60
32147;DHT22;32190;49.112;8.598;2023-04-03T14:25:54;12.20;40.30
32147;DHT22;32190;49.112;8.598;2023-04-03T14:31:48;12.10;40.30
32147;DHT22;32190;49.112;8.598;2023-04-03T14:37:39;12.10;39.90
32147;DHT22;32190;49.112;8.598;2023-04-03T14:43:30;12.20;40.20
32147;DHT22;32190;49.112;8.598;2023-04-03T14:49:25;12.20;41.10
32147;DHT22;32190;49.112;8.598;2023-04-03T14:55:18;12.30;39.70
32147;DHT22;32190;49.112;8.598;2023-04-03T15:01:11;12.40;40.10
32147;DHT22;32190;49.112;8.598;2023-04-03T15:07:02;12.50;40.00
32147;DHT22;32190;49.112;8.598;2023-04-03T15:12:53;12.70;39.90
32147;DHT22;32190;49.112;8.598;2023-04-03T15:18:45;12.70;39.60
32147;DHT22;32190;49.112;8.598;2023-04-03T15:24:37;12.80;39.50
32147;DHT22;32190;49.112;8.598;2023-04-03T15:30:28;12.80;39.30
32147;DHT22;32190;49.112;8.598;2023-04-03T15:36:18;12.80;39.10
32147;DHT22;32190;49.112;8.598;2023-04-03T15:42:09;12.80;39.30
32147;DHT22;32190;49.112;8.598;2023-04-03T15:48:00;12.80;39.40
32147;DHT22;32190;49.112;8.598;2023-04-03T15:53:51;12.90;39.50
32147;DHT22;32190;49.112;8.598;2023-04-03T15:59:41;13.00;39.40
32147;DHT22;32190;49.112;8.598;2023-04-03T16:05:32;13.00;39.10
32147;DHT22;32190;49.112;8.598;2023-04-03T16:11:43;12.90;38.70
32147;DHT22;32190;49.112;8.598;2023-04-03T16:17:59;12.90;37.70
32147;DHT22;32190;49.112;8.598;2023-04-03T16:23:52;12.90;38.20
32147;DHT22;32190;49.112;8.598;2023-04-03T16:30:02;12.90;38.10
32147;DHT22;32190;49.112;8.598;2023-04-03T16:35:56;12.80;38.50
32147;DHT22;32190;49.112;8.598;2023-04-03T16:41:50;12.90;39.30
32147;DHT22;32190;49.112;8.598;2023-04-03T16:47:43;12.90;39.30
32147;DHT22;32190;49.112;8.598;2023-04-03T16:53:34;12.80;38.60
32147;DHT22;32190;49.112;8.598;2023-04-03T16:59:31;12.80;38.40
32147;DHT22;32190;49.112;8.598;2023-04-03T17:05:22;12.70;38.50
32147;DHT22;32190;49.112;8.598;2023-04-03T17:11:14;12.60;38.90
32147;DHT22;32190;49.112;8.598;2023-04-03T17:17:05;12.50;38.50
32147;DHT22;32190;49.112;8.598;2023-04-03T17:22:56;12.50;39.00
32147;DHT22;32190;49.112;8.598;2023-04-03T17:28:47;12.40;38.80
32147;DHT22;32190;49.112;8.598;2023-04-03T17:34:38;12.30;38.80
32147;DHT22;32190;49.112;8.598;2023-04-03T17:40:29;12.20;38.40
32147;DHT22;32190;49.112;8.598;2023-04-03T17:46:19;12.10;38.20
32147;DHT22;32190;49.112;8.598;2023-04-03T17:52:10;12.10;38.70
32147;DHT22;32190;49.112;8.598;2023-04-03T17:58:01;12.10;38.80
32147;DHT22;32190;49.112;8.598;2023-04-03T18:03:53;12.00;39.20
32147;DHT22;32190;49.112;8.598;2023-04-03T18:09:45;11.90;39.40
32147;DHT22;32190;49.112;8.598;2023-04-03T18:15:37;11.90;39.50
32147;DHT22;32190;49.112;8.598;2023-04-03T18:21:34;11.90;39.30
32147;DHT22;32190;49.112;8.598;2023-04-03T18:27:25;11.90;39.90
32147;DHT22;32190;49.112;8.598;2023-04-03T18:33:16;11.80;39.70
32147;DHT22;32190;49.112;8.598;2023-04-03T18:39:07;11.70;39.40
32147;DHT22;32190;49.112;8.598;2023-04-03T18:45:00;11.60;39.60
32147;DHT22;32190;49.112;8.598;2023-04-03T18:50:51;11.60;40.00
32147;DHT22;32190;49.112;8.598;2023-04-03T18:56:42;11.50;39.70
32147;DHT22;32190;49.112;8.598;2023-04-03T19:02:35;11.50;40.20
32147;DHT22;32190;49.112;8.598;2023-04-03T19:08:26;11.40;40.00
32147;DHT22;32190;49.112;8.598;2023-04-03T19:14:17;11.30;40.00
32147;DHT22;32190;49.112;8.598;2023-04-03T19:20:09;11.30;40.40
32147;DHT22;32190;49.112;8.598;2023-04-03T19:26:06;11.20;40.70
32147;DHT22;32190;49.112;8.598;2023-04-03T19:31:56;11.20;40.70
32147;DHT22;32190;49.112;8.598;2023-04-03T19:37:47;11.20;40.70
32147;DHT22;32190;49.112;8.598;2023-04-03T19:43:40;11.10;40.40
32147;DHT22;32190;49.112;8.598;2023-04-03T19:49:31;11.10;40.80
32147;DHT22;32190;49.112;8.598;2023-04-03T19:55:25;11.00;41.10
32147;DHT22;32190;49.112;8.598;2023-04-03T20:01:21;11.00;40.80
32147;DHT22;32190;49.112;8.598;2023-04-03T20:07:13;10.90;41.10
32147;DHT22;32190;49.112;8.598;2023-04-03T20:13:04;10.90;41.20
32147;DHT22;32190;49.112;8.598;2023-04-03T20:18:58;10.80;41.20
32147;DHT22;32190;49.112;8.598;2023-04-03T20:24:49;10.80;41.20
32147;DHT22;32190;49.112;8.598;2023-04-03T20:30:41;10.70;40.90
32147;DHT22;32190;49.112;8.598;2023-04-03T20:43:20;10.40;40.40
32147;DHT22;32190;49.112;8.598;2023-04-03T20:49:30;10.30;40.80
32147;DHT22;32190;49.112;8.598;2023-04-03T21:02:12;10.10;41.30
32147;DHT22;32190;49.112;8.598;2023-04-03T21:21:34;9.70;41.20
32147;DHT22;32190;49.112;8.598;2023-04-03T21:27:27;9.70;41.50
32147;DHT22;32190;49.112;8.598;2023-04-03T21:33:18;9.70;41.30
32147;DHT22;32190;49.112;8.598;2023-04-03T21:39:08;9.60;41.30
32147;DHT22;32190;49.112;8.598;2023-04-03T21:44:58;9.60;41.10
32147;DHT22;32190;49.112;8.598;2023-04-03T21:50:49;9.50;41.40
32147;DHT22;32190;49.112;8.598;2023-04-03T21:56:43;9.40;41.50
32147;DHT22;32190;49.112;8.598;2023-04-03T22:02:33;9.40;41.80
32147;DHT22;32190;49.112;8.598;2023-04-03T22:08:28;9.30;41.30
32147;DHT22;32190;49.112;8.598;2023-04-03T22:14:18;9.20;41.60
32147;DHT22;32190;49.112;8.598;2023-04-03T22:20:09;9.20;41.30
32147;DHT22;32190;49.112;8.598;2023-04-03T22:26:05;9.00;41.40
32147;DHT22;32190;49.112;8.598;2023-04-03T22:31:56;9.00;41.70
32147;DHT22;32190;49.112;8.598;2023-04-03T22:37:47;8.90;41.50
32147;DHT22;32190;49.112;8.598;2023-04-03T22:43:38;8.90;41.50
32147;DHT22;32190;49.112;8.598;2023-04-03T22:49:29;8.90;41.50
32147;DHT22;32190;49.112;8.598;2023-04-03T22:55:20;8.80;41.50
32147;DHT22;32190;49.112;8.598;2023-04-03T23:01:12;8.80;40.90
32147;DHT22;32190;49.112;8.598;2023-04-03T23:07:02;8.70;41.40
32147;DHT22;32190;49.112;8.598;2023-04-03T23:12:53;8.60;41.00
32147;DHT22;32190;49.112;8.598;2023-04-03T23:18:43;8.50;41.30
32147;DHT22;32190;49.112;8.598;2023-04-03T23:24:34;8.40;41.70
32147;DHT22;32190;49.112;8.598;2023-04-03T23:30:24;8.40;41.50
32147;DHT22;32190;49.112;8.598;2023-04-03T23:36:15;8.40;41.80
32147;DHT22;32190;49.112;8.598;2023-04-03T23:42:06;8.30;41.70
32147;DHT22;32190;49.112;8.598;2023-04-03T23:47:58;8.30;41.60
32147;DHT22;32190;49.112;8.598;2023-04-03T23:53:49;8.20;41.80
32147;DHT22;32190;49.112;8.598;2023-04-03T23:59:46;8.20;41.50
